Time;durP1;ratioP1;P1;durP2;ratioP2;P2;SDS_P1;SDS_P2;PMS_P1;PMS_P2;Temp;Humidity;BMP_temperature;BMP_pressure;BME280_temperature;BME280_humidity;BME280_pressure;Samples;Min_cycle;Max_cycle;Signal;HPM_P1;HPM_P2
2024/04/11 00:01:54;;;;;;;6.78;1.52;;;;;;;;;;5410878;26;20745;-72
2024/04/11 00:04:20;;;;;;;7.22;1.35;;;;;;;;;;5399755;26;20234;-72
2024/04/11 00:06:45;;;;;;;4.07;1.20;;;;;;;;;;5405551;26;20280;-72
2024/04/11 00:09:10;;;;;;;3.50;1.40;;;;;;;;;;5409372;26;20244;-73
2024/04/11 00:11:35;;;;;;;4.50;2.15;;;;;;;;;;5403949;26;20277;-73
2024/04/11 00:14:00;;;;;;;4.68;1.13;;;;;;;;;;5407942;26;20681;-72
2024/04/11 00:16:26;;;;;;;4.97;1.33;;;;;;;;;;5406936;26;20239;-72
2024/04/11 00:18:51;;;;;;;6.88;1.60;;;;;;;;;;5408434;26;20231;-73
2024/04/11 00:21:18;;;;;;;6.70;1.75;;;;;;;;;;5410936;26;20227;-72
2024/04/11 00:23:47;;;;;;;7.05;1.13;;;;;;;;;;5387661;26;20251;-72
2024/04/11 00:26:13;;;;;;;7.85;1.98;;;;;;;;;;5412337;26;20254;-72
2024/04/11 00:28:38;;;;;;;5.20;1.00;;;;;;;;;;5409330;26;20614;-72
2024/04/11 00:31:03;;;;;;;4.25;0.98;;;;;;;;;;5412390;26;20289;-72
2024/04/11 00:33:28;;;;;;;4.18;1.30;;;;;;;;;;5404211;26;20764;-72
2024/04/11 00:35:53;;;;;;;1.88;1.63;;;;;;;;;;5411425;26;20246;-72
2024/04/11 00:38:23;;;;;;;2.85;1.00;;;;;;;;;;5412776;26;20272;-73
2024/04/11 00:40:55;;;;;;;2.85;1.02;;;;;;;;;;5402742;26;20234;-72
2024/04/11 00:43:20;;;;;;;4.55;1.40;;;;;;;;;;5410697;26;20269;-72
2024/04/11 00:45:47;;;;;;;7.18;1.58;;;;;;;;;;5411587;26;20515;-72
2024/04/11 00:48:12;;;;;;;4.15;1.40;;;;;;;;;;5412725;26;20595;-72
2024/04/11 00:50:40;;;;;;;2.88;1.35;;;;;;;;;;5413757;26;20238;-73
2024/04/11 00:53:06;;;;;;;4.93;1.00;;;;;;;;;;5403530;26;20246;-73
2024/04/11 00:55:32;;;;;;;4.05;1.40;;;;;;;;;;5413940;26;20816;-73
2024/04/11 00:57:57;;;;;;;7.78;1.27;;;;;;;;;;5409694;26;20606;-73
2024/04/11 01:00:25;;;;;;;6.13;1.65;;;;;;;;;;5389484;26;20251;-73
2024/04/11 01:02:51;;;;;;;5.43;1.00;;;;;;;;;;5407898;26;20231;-73
2024/04/11 01:05:17;;;;;;;4.50;0.98;;;;;;;;;;5404714;26;20283;-73
2024/04/11 01:07:49;;;;;;;2.90;1.20;;;;;;;;;;5407265;26;20288;-73
2024/04/11 01:10:17;;;;;;;7.60;1.67;;;;;;;;;;5403852;26;20325;-73
2024/04/11 01:12:42;;;;;;;2.22;1.38;;;;;;;;;;5414146;26;20238;-73
2024/04/11 01:15:07;;;;;;;6.40;1.30;;;;;;;;;;5412688;26;20290;-72
2024/04/11 01:17:32;;;;;;;5.97;1.20;;;;;;;;;;5410721;26;20254;-72
2024/04/11 01:19:58;;;;;;;5.95;1.27;;;;;;;;;;5408711;26;20299;-72
2024/04/11 01:22:23;;;;;;;4.53;1.00;;;;;;;;;;5400637;26;20328;-72
2024/04/11 01:24:48;;;;;;;3.67;1.23;;;;;;;;;;5409242;26;20242;-72
2024/04/11 01:27:16;;;;;;;9.95;2.05;;;;;;;;;;5408344;26;20243;-72
2024/04/11 01:29:41;;;;;;;3.58;1.13;;;;;;;;;;5401856;26;20285;-72
2024/04/11 01:32:07;;;;;;;3.72;1.40;;;;;;;;;;5399987;26;20745;-72
2024/04/11 01:34:33;;;;;;;4.28;1.08;;;;;;;;;;5399225;26;20265;-72
2024/04/11 01:36:58;;;;;;;9.35;1.77;;;;;;;;;;5401540;26;20638;-72
2024/04/11 01:39:24;;;;;;;2.60;1.05;;;;;;;;;;5403741;26;20273;-72
2024/04/11 01:41:49;;;;;;;5.88;1.95;;;;;;;;;;5406799;26;20219;-72
2024/04/11 01:44:14;;;;;;;3.20;1.40;;;;;;;;;;5414398;26;20223;-72
2024/04/11 01:46:40;;;;;;;3.40;1.10;;;;;;;;;;5415049;26;20255;-72
2024/04/11 01:49:05;;;;;;;11.25;1.52;;;;;;;;;;5413089;26;20624;-72
2024/04/11 01:51:30;;;;;;;5.15;1.60;;;;;;;;;;5415020;26;20219;-72
2024/04/11 01:53:55;;;;;;;8.32;1.88;;;;;;;;;;5402283;26;20611;-72
2024/04/11 01:56:20;;;;;;;6.18;1.52;;;;;;;;;;5402868;26;20234;-73
2024/04/11 01:58:46;;;;;;;2.85;1.13;;;;;;;;;;5403631;26;20368;-73
2024/04/11 02:01:13;;;;;;;2.80;1.38;;;;;;;;;;5397104;26;20350;-72
2024/04/11 02:03:48;;;;;;;6.18;2.38;;;;;;;;;;5405216;26;20270;-72
2024/04/11 02:06:13;;;;;;;6.38;1.45;;;;;;;;;;5410761;26;20288;-72
2024/04/11 02:08:39;;;;;;;3.90;1.17;;;;;;;;;;5412191;26;20714;-73
2024/04/11 02:11:06;;;;;;;3.47;1.85;;;;;;;;;;5409946;26;20609;-73
2024/04/11 02:13:31;;;;;;;3.08;1.20;;;;;;;;;;5406499;26;20973;-72
2024/04/11 02:15:56;;;;;;;8.82;1.50;;;;;;;;;;5408584;26;20749;-72
2024/04/11 02:18:22;;;;;;;3.58;1.73;;;;;;;;;;5393659;26;20327;-72
2024/04/11 02:20:47;;;;;;;7.95;2.13;;;;;;;;;;5392378;26;20256;-72
2024/04/11 02:23:13;;;;;;;2.78;1.60;;;;;;;;;;5402946;26;20234;-72
2024/04/11 02:25:38;;;;;;;5.15;1.20;;;;;;;;;;5408050;26;20248;-72
2024/04/11 02:28:03;;;;;;;3.72;1.55;;;;;;;;;;5407747;26;20248;-72
2024/04/11 02:30:29;;;;;;;7.95;1.33;;;;;;;;;;5411603;26;20273;-73
2024/04/11 02:32:54;;;;;;;5.60;1.73;;;;;;;;;;5415135;26;20247;-72
2024/04/11 02:35:19;;;;;;;4.95;1.42;;;;;;;;;;5417792;26;20718;-73
2024/04/11 02:37:44;;;;;;;5.85;1.45;;;;;;;;;;5410454;26;20251;-73
2024/04/11 02:40:09;;;;;;;8.75;1.75;;;;;;;;;;5417354;26;20231;-72
2024/04/11 02:42:37;;;;;;;1.77;1.40;;;;;;;;;;5406334;26;20343;-72
2024/04/11 02:45:02;;;;;;;4.10;2.03;;;;;;;;;;5413088;26;21005;-72
2024/04/11 02:47:28;;;;;;;7.13;1.70;;;;;;;;;;5407987;26;20254;-73
2024/04/11 02:49:55;;;;;;;5.32;1.60;;;;;;;;;;5403108;26;20289;-73
2024/04/11 02:52:20;;;;;;;6.45;1.33;;;;;;;;;;5403670;26;20235;-71
2024/04/11 02:54:45;;;;;;;6.25;1.25;;;;;;;;;;5405251;26;20265;-73
2024/04/11 02:57:11;;;;;;;5.03;1.80;;;;;;;;;;5407899;26;20239;-73
2024/04/11 02:59:36;;;;;;;2.40;1.15;;;;;;;;;;5410397;26;20226;-73
2024/04/11 03:02:01;;;;;;;6.22;1.40;;;;;;;;;;5404178;26;20239;-74
2024/04/11 03:04:28;;;;;;;6.78;1.40;;;;;;;;;;5409561;26;20242;-73
2024/04/11 03:06:54;;;;;;;7.10;1.65;;;;;;;;;;5405773;26;20243;-71
2024/04/11 03:09:19;;;;;;;3.83;1.65;;;;;;;;;;5412235;26;20265;-71
2024/04/11 03:11:45;;;;;;;4.28;1.35;;;;;;;;;;5395586;26;20236;-72
2024/04/11 03:14:10;;;;;;;4.47;1.20;;;;;;;;;;5395231;26;20232;-72
2024/04/11 03:16:36;;;;;;;8.23;1.20;;;;;;;;;;5395375;26;20583;-71
2024/04/11 03:19:01;;;;;;;5.45;1.20;;;;;;;;;;5407886;26;20230;-72
2024/04/11 03:21:26;;;;;;;3.33;1.33;;;;;;;;;;5407895;26;20269;-71
2024/04/11 03:23:52;;;;;;;6.18;1.33;;;;;;;;;;5409103;26;20717;-71
2024/04/11 03:26:17;;;;;;;7.10;1.40;;;;;;;;;;5407923;26;20740;-72
2024/04/11 03:28:42;;;;;;;4.22;1.70;;;;;;;;;;5410923;26;20698;-72
2024/04/11 03:31:08;;;;;;;7.35;1.70;;;;;;;;;;5397251;26;20834;-73
2024/04/11 03:33:36;;;;;;;7.88;2.03;;;;;;;;;;5394622;26;20226;-72
2024/04/11 03:36:05;;;;;;;6.00;1.65;;;;;;;;;;5414801;26;20234;-72
2024/04/11 03:38:30;;;;;;;4.82;1.35;;;;;;;;;;5415709;26;20235;-72
2024/04/11 03:41:03;;;;;;;4.82;1.65;;;;;;;;;;5419500;26;20314;-72
2024/04/11 03:43:28;;;;;;;3.20;1.55;;;;;;;;;;5408442;26;20239;-73
2024/04/11 03:46:04;;;;;;;10.48;2.05;;;;;;;;;;5400446;26;20247;-73
2024/04/11 03:48:30;;;;;;;3.45;1.35;;;;;;;;;;5408699;26;20368;-71
2024/04/11 03:50:56;;;;;;;4.32;1.65;;;;;;;;;;5395987;26;20234;-72
2024/04/11 03:53:21;;;;;;;5.85;1.67;;;;;;;;;;5389675;26;20339;-72
2024/04/11 03:55:47;;;;;;;3.75;1.50;;;;;;;;;;5404664;26;20242;-72
2024/04/11 03:58:12;;;;;;;5.63;1.65;;;;;;;;;;5408725;26;20228;-72
2024/04/11 04:00:37;;;;;;;7.05;2.58;;;;;;;;;;5402842;26;20244;-72
2024/04/11 04:03:02;;;;;;;11.48;1.33;;;;;;;;;;5393392;26;20244;-72
2024/04/11 04:05:28;;;;;;;6.80;1.83;;;;;;;;;;5404586;26;20705;-72
2024/04/11 04:07:53;;;;;;;5.72;1.67;;;;;;;;;;5399234;26;20228;-72
2024/04/11 04:10:20;;;;;;;6.15;1.75;;;;;;;;;;5421883;26;20234;-72
2024/04/11 04:12:45;;;;;;;7.18;2.08;;;;;;;;;;5423698;26;20232;-72
2024/04/11 04:15:11;;;;;;;3.28;2.00;;;;;;;;;;5430366;26;20316;-74
2024/04/11 04:17:36;;;;;;;7.70;2.00;;;;;;;;;;5419155;26;20315;-72
2024/04/11 04:20:03;;;;;;;4.07;1.67;;;;;;;;;;5419291;26;20228;-72
2024/04/11 04:22:28;;;;;;;6.68;1.52;;;;;;;;;;5421716;26;20246;-73
2024/04/11 04:24:54;;;;;;;5.25;2.33;;;;;;;;;;5412477;26;20282;-72
2024/04/11 04:27:21;;;;;;;4.57;1.80;;;;;;;;;;5404706;26;20251;-73
2024/04/11 04:29:50;;;;;;;5.78;1.60;;;;;;;;;;5403795;26;20278;-73
2024/04/11 04:32:16;;;;;;;7.78;1.75;;;;;;;;;;5415591;26;20285;-72
2024/04/11 04:34:42;;;;;;;3.65;1.70;;;;;;;;;;5404537;26;20312;-72
2024/04/11 04:37:07;;;;;;;4.30;1.58;;;;;;;;;;5414990;26;20702;-73
2024/04/11 04:39:37;;;;;;;7.90;1.80;;;;;;;;;;5415349;26;20352;-72
2024/04/11 04:42:03;;;;;;;4.10;1.83;;;;;;;;;;5416009;26;20231;-72
2024/04/11 04:44:28;;;;;;;9.40;2.17;;;;;;;;;;5411216;26;20737;-73
2024/04/11 04:46:53;;;;;;;4.50;1.95;;;;;;;;;;5408741;26;20296;-73
2024/04/11 04:49:18;;;;;;;7.32;2.20;;;;;;;;;;5405331;26;20250;-73
2024/04/11 04:51:44;;;;;;;5.00;2.35;;;;;;;;;;5407113;26;20338;-73
2024/04/11 04:54:11;;;;;;;7.70;2.10;;;;;;;;;;5400473;26;20240;-73
2024/04/11 04:56:36;;;;;;;6.00;2.05;;;;;;;;;;5409011;26;20407;-73
2024/04/11 04:59:02;;;;;;;7.72;2.40;;;;;;;;;;5408021;26;20235;-72
2024/04/11 05:01:28;;;;;;;5.75;2.95;;;;;;;;;;5407414;26;20588;-72
2024/04/11 05:03:55;;;;;;;3.67;2.05;;;;;;;;;;5394152;26;20236;-73
2024/04/11 05:06:20;;;;;;;6.00;2.10;;;;;;;;;;5407466;26;20286;-72
2024/04/11 05:08:46;;;;;;;4.43;2.03;;;;;;;;;;5397383;26;20244;-72
2024/04/11 05:11:15;;;;;;;5.97;2.58;;;;;;;;;;5405008;26;20718;-72
2024/04/11 05:13:40;;;;;;;5.07;2.42;;;;;;;;;;5409725;26;20235;-73
2024/04/11 05:16:06;;;;;;;7.63;2.58;;;;;;;;;;5413718;26;20227;-72
2024/04/11 05:18:38;;;;;;;8.73;2.65;;;;;;;;;;5414802;26;20243;-73
2024/04/11 05:21:04;;;;;;;8.10;2.88;;;;;;;;;;5411613;26;20665;-73
2024/04/11 05:23:32;;;;;;;9.27;2.78;;;;;;;;;;5406477;26;20239;-72
2024/04/11 05:25:58;;;;;;;7.28;2.50;;;;;;;;;;5403203;26;20355;-72
2024/04/11 05:28:25;;;;;;;7.10;2.75;;;;;;;;;;5404982;26;20726;-73
2024/04/11 05:30:51;;;;;;;7.28;2.60;;;;;;;;;;5412867;26;20231;-72
2024/04/11 05:33:16;;;;;;;6.65;2.38;;;;;;;;;;5441148;26;20328;-72
2024/04/11 05:35:41;;;;;;;8.43;3.55;;;;;;;;;;5413208;26;20270;-73
2024/04/11 05:38:10;;;;;;;6.40;2.45;;;;;;;;;;5415084;26;20230;-73
2024/04/11 05:40:36;;;;;;;4.93;3.40;;;;;;;;;;5413130;26;20242;-72
2024/04/11 05:43:02;;;;;;;5.82;2.88;;;;;;;;;;5414019;26;20223;-71
2024/04/11 05:45:33;;;;;;;9.30;3.15;;;;;;;;;;5414716;26;20268;-72
2024/04/11 05:47:59;;;;;;;7.65;3.15;;;;;;;;;;5407199;26;20778;-72
2024/04/11 05:50:24;;;;;;;7.30;3.38;;;;;;;;;;5413306;26;20235;-72
2024/04/11 05:52:49;;;;;;;6.68;2.78;;;;;;;;;;5404020;26;20246;-72
2024/04/11 05:55:15;;;;;;;3.88;3.10;;;;;;;;;;5404905;26;20236;-72
2024/04/11 05:57:43;;;;;;;5.07;3.28;;;;;;;;;;5410321;26;20246;-72
2024/04/11 06:00:11;;;;;;;5.38;3.20;;;;;;;;;;5409095;26;20272;-71
2024/04/11 06:02:38;;;;;;;9.43;3.83;;;;;;;;;;5406787;26;20223;-72
2024/04/11 06:05:07;;;;;;;10.00;3.72;;;;;;;;;;5405141;26;20400;-71
2024/04/11 06:07:32;;;;;;;9.57;3.92;;;;;;;;;;5411269;26;20277;-71
2024/04/11 06:10:00;;;;;;;5.70;3.60;;;;;;;;;;5410175;26;20227;-70
2024/04/11 06:12:25;;;;;;;7.22;4.15;;;;;;;;;;5412040;26;20232;-72
2024/04/11 06:14:51;;;;;;;6.07;3.70;;;;;;;;;;5396639;26;20281;-71
2024/04/11 06:17:17;;;;;;;9.43;4.03;;;;;;;;;;5408291;26;20341;-71
2024/04/11 06:19:42;;;;;;;9.23;4.88;;;;;;;;;;5413329;26;20238;-71
2024/04/11 06:22:08;;;;;;;9.77;4.03;;;;;;;;;;5412287;26;20258;-72
2024/04/11 06:24:35;;;;;;;8.25;4.03;;;;;;;;;;5409217;26;20327;-70
2024/04/11 06:27:01;;;;;;;7.88;4.60;;;;;;;;;;5413951;26;20226;-70
2024/04/11 06:29:26;;;;;;;11.55;4.53;;;;;;;;;;5401959;26;20342;-71
2024/04/11 06:31:53;;;;;;;8.07;4.18;;;;;;;;;;5399439;26;20348;-71
2024/04/11 06:34:18;;;;;;;7.20;4.10;;;;;;;;;;5396413;26;20242;-71
2024/04/11 06:36:49;;;;;;;5.97;4.07;;;;;;;;;;5392208;26;20289;-71
2024/04/11 06:39:16;;;;;;;6.80;4.00;;;;;;;;;;5404636;26;20822;-71
2024/04/11 06:41:41;;;;;;;12.32;4.40;;;;;;;;;;5401288;26;20269;-71
2024/04/11 06:44:08;;;;;;;16.58;4.90;;;;;;;;;;5404255;26;20240;-71
2024/04/11 06:46:33;;;;;;;7.65;4.22;;;;;;;;;;5406401;26;20277;-71
2024/04/11 06:48:58;;;;;;;10.18;4.60;;;;;;;;;;5401107;26;20777;-71
2024/04/11 06:51:25;;;;;;;8.25;4.20;;;;;;;;;;5406182;26;20238;-71
2024/04/11 06:53:51;;;;;;;6.15;4.00;;;;;;;;;;5394801;26;20352;-72
2024/04/11 06:56:18;;;;;;;11.43;3.83;;;;;;;;;;5406844;26;20280;-72
2024/04/11 06:58:45;;;;;;;8.10;3.72;;;;;;;;;;5398684;26;20679;-71
2024/04/11 07:01:13;;;;;;;8.32;4.25;;;;;;;;;;5404435;26;20234;-72
2024/04/11 07:03:40;;;;;;;7.47;4.38;;;;;;;;;;5397389;26;20757;-72
2024/04/11 07:08:46;;;;;;;7.15;3.70;;;;;;;;;;5407032;26;20732;-72
2024/04/11 07:11:27;;;;;;;5.40;3.78;;;;;;;;;;5402432;26;20243;-72
2024/04/11 07:13:56;;;;;;;7.68;4.03;;;;;;;;;;5402368;26;20299;-72
2024/04/11 07:16:26;;;;;;;6.05;4.35;;;;;;;;;;5405991;26;20239;-72
2024/04/11 07:18:54;;;;;;;7.75;4.35;;;;;;;;;;5406871;26;20272;-72
2024/04/11 07:21:20;;;;;;;10.45;4.35;;;;;;;;;;5410230;26;20266;-72
2024/04/11 07:23:47;;;;;;;4.50;3.95;;;;;;;;;;5397976;26;20239;-73
2024/04/11 07:26:12;;;;;;;11.30;4.53;;;;;;;;;;5410769;26;20239;-73
2024/04/11 07:28:41;;;;;;;8.63;4.22;;;;;;;;;;5401517;26;20684;-73
2024/04/11 07:31:06;;;;;;;8.35;4.43;;;;;;;;;;5401136;26;20278;-72
2024/04/11 07:33:31;;;;;;;4.53;3.65;;;;;;;;;;5398705;26;20576;-71
2024/04/11 07:35:57;;;;;;;7.40;4.65;;;;;;;;;;5399957;26;20762;-72
2024/04/11 07:38:26;;;;;;;11.57;4.72;;;;;;;;;;5407761;26;20235;-71
2024/04/11 07:40:54;;;;;;;7.65;4.15;;;;;;;;;;5404878;26;20235;-71
2024/04/11 07:43:21;;;;;;;12.15;4.55;;;;;;;;;;5409763;26;20744;-71
2024/04/11 07:45:47;;;;;;;6.90;4.63;;;;;;;;;;5408960;26;20234;-71
2024/04/11 07:48:12;;;;;;;6.85;4.68;;;;;;;;;;5413124;26;20608;-71
2024/04/11 07:50:38;;;;;;;9.80;5.38;;;;;;;;;;5415930;26;20586;-71
2024/04/11 07:53:07;;;;;;;10.98;6.28;;;;;;;;;;5414076;26;20231;-72
2024/04/11 07:55:32;;;;;;;8.75;5.30;;;;;;;;;;5410705;26;20218;-72
2024/04/11 07:57:58;;;;;;;7.57;5.60;;;;;;;;;;5413682;26;20650;-72
2024/04/11 08:00:27;;;;;;;10.68;5.35;;;;;;;;;;5403957;26;20265;-72
2024/04/11 08:02:56;;;;;;;9.80;5.50;;;;;;;;;;5406933;26;20247;-73
2024/04/11 08:05:22;;;;;;;7.90;5.75;;;;;;;;;;5401414;26;20235;-72
2024/04/11 08:07:47;;;;;;;9.18;5.55;;;;;;;;;;5408272;26;20239;-71
2024/04/11 08:10:13;;;;;;;10.60;5.90;;;;;;;;;;5410560;26;20281;-71
2024/04/11 08:12:38;;;;;;;17.88;5.75;;;;;;;;;;5409198;26;20307;-71
2024/04/11 08:15:03;;;;;;;8.75;5.60;;;;;;;;;;5403640;26;20228;-71
2024/04/11 08:17:29;;;;;;;9.52;5.50;;;;;;;;;;5404721;26;20244;-71
2024/04/11 08:19:54;;;;;;;11.40;6.05;;;;;;;;;;5399170;26;20231;-71
2024/04/11 08:22:22;;;;;;;6.68;5.45;;;;;;;;;;5408265;26;20282;-71
2024/04/11 08:24:49;;;;;;;13.90;6.32;;;;;;;;;;5400138;26;20231;-71
2024/04/11 08:27:14;;;;;;;10.27;5.80;;;;;;;;;;5410797;26;20518;-72
2024/04/11 08:29:40;;;;;;;9.35;6.22;;;;;;;;;;5406138;26;20279;-72
2024/04/11 08:32:05;;;;;;;8.77;5.55;;;;;;;;;;5403026;26;20270;-71
2024/04/11 08:34:30;;;;;;;11.13;5.63;;;;;;;;;;5410527;26;20269;-72
2024/04/11 08:36:56;;;;;;;13.07;6.82;;;;;;;;;;5409088;26;20239;-72
2024/04/11 08:39:22;;;;;;;9.75;6.15;;;;;;;;;;5409880;26;20230;-71
2024/04/11 08:41:51;;;;;;;9.77;7.07;;;;;;;;;;5407324;26;20577;-71
2024/04/11 08:44:16;;;;;;;6.90;5.57;;;;;;;;;;5412501;26;20255;-71
2024/04/11 08:46:43;;;;;;;9.15;6.22;;;;;;;;;;5408726;26;20730;-71
2024/04/11 08:49:08;;;;;;;11.85;6.13;;;;;;;;;;5412018;26;20669;-71
2024/04/11 08:51:36;;;;;;;14.63;6.93;;;;;;;;;;5407305;26;20631;-71
2024/04/11 08:54:02;;;;;;;11.73;5.95;;;;;;;;;;5409701;26;20283;-71
2024/04/11 08:56:28;;;;;;;14.77;5.97;;;;;;;;;;5412941;26;20234;-71
2024/04/11 08:58:53;;;;;;;10.70;6.63;;;;;;;;;;5401773;26;20272;-71
2024/04/11 09:01:19;;;;;;;10.43;6.88;;;;;;;;;;5407764;26;20277;-71
2024/04/11 09:03:48;;;;;;;11.00;6.20;;;;;;;;;;5407056;26;20288;-71
2024/04/11 09:06:13;;;;;;;9.93;6.25;;;;;;;;;;5393170;26;20239;-71
2024/04/11 09:08:40;;;;;;;13.43;6.20;;;;;;;;;;5411286;26;20625;-71
2024/04/11 09:11:05;;;;;;;9.15;6.63;;;;;;;;;;5404636;26;20239;-71
2024/04/11 09:13:30;;;;;;;8.93;5.70;;;;;;;;;;5407122;26;20792;-71
2024/04/11 09:16:04;;;;;;;8.45;6.53;;;;;;;;;;5409262;26;20714;-70
2024/04/11 09:18:30;;;;;;;16.02;6.65;;;;;;;;;;5401767;26;20252;-71
2024/04/11 09:20:59;;;;;;;10.70;6.85;;;;;;;;;;5405695;26;20348;-71
2024/04/11 09:23:24;;;;;;;10.00;6.95;;;;;;;;;;5400034;26;20312;-71
2024/04/11 09:25:49;;;;;;;12.93;7.00;;;;;;;;;;5408635;26;20230;-71
2024/04/11 09:28:14;;;;;;;10.95;6.50;;;;;;;;;;5406180;26;20243;-71
2024/04/11 09:30:39;;;;;;;15.65;6.82;;;;;;;;;;5406380;26;20242;-71
2024/04/11 09:33:10;;;;;;;14.70;7.22;;;;;;;;;;5402309;26;20822;-72
2024/04/11 09:35:40;;;;;;;9.20;6.68;;;;;;;;;;5413437;26;20634;-71
2024/04/11 09:38:10;;;;;;;11.85;6.40;;;;;;;;;;5410943;26;20686;-71
2024/04/11 09:40:38;;;;;;;9.93;6.10;;;;;;;;;;5399250;26;20794;-71
2024/04/11 09:43:05;;;;;;;9.63;6.63;;;;;;;;;;5402034;26;20281;-71
2024/04/11 09:45:35;;;;;;;10.88;6.72;;;;;;;;;;5410630;26;20760;-71
2024/04/11 09:48:02;;;;;;;10.15;6.70;;;;;;;;;;5410120;26;20227;-71
2024/04/11 09:50:28;;;;;;;13.02;7.28;;;;;;;;;;5408861;26;20261;-71
2024/04/11 09:52:54;;;;;;;11.35;7.28;;;;;;;;;;5408793;26;20231;-71
2024/04/11 09:55:33;;;;;;;13.75;7.50;;;;;;;;;;5408795;26;20235;-71
2024/04/11 09:57:58;;;;;;;12.15;7.07;;;;;;;;;;5403394;26;20404;-71
2024/04/11 10:00:48;;;;;;;14.80;8.00;;;;;;;;;;5400342;26;20749;-71
2024/04/11 10:03:09;;;;;;;10.90;7.25;;;;;;;;;;5403862;26;20236;-71
2024/04/11 10:05:38;;;;;;;13.75;8.35;;;;;;;;;;5405879;26;20581;-71
2024/04/11 10:08:03;;;;;;;13.10;7.43;;;;;;;;;;5395529;26;20231;-72
2024/04/11 10:10:30;;;;;;;15.50;8.10;;;;;;;;;;5410124;26;20229;-71
2024/04/11 10:12:59;;;;;;;21.80;9.45;;;;;;;;;;5411789;26;20631;-71
2024/04/11 10:15:29;;;;;;;14.15;8.43;;;;;;;;;;5403464;26;20273;-71
2024/04/11 10:18:10;;;;;;;16.48;9.15;;;;;;;;;;5406481;26;20243;-72
2024/04/11 10:20:43;;;;;;;16.48;9.32;;;;;;;;;;5401353;26;20279;-71
2024/04/11 10:23:09;;;;;;;15.07;8.32;;;;;;;;;;5406510;26;20240;-72
2024/04/11 10:25:38;;;;;;;15.10;8.63;;;;;;;;;;5402658;26;20235;-72
2024/04/11 10:28:14;;;;;;;17.55;8.27;;;;;;;;;;5395894;26;20721;-71
2024/04/11 10:30:41;;;;;;;15.15;8.25;;;;;;;;;;5411409;26;20238;-72
2024/04/11 10:33:13;;;;;;;14.27;8.38;;;;;;;;;;5406210;26;20238;-72
2024/04/11 10:35:46;;;;;;;17.77;9.18;;;;;;;;;;5400761;26;20284;-72
2024/04/11 10:38:13;;;;;;;15.23;8.98;;;;;;;;;;5409956;26;20343;-72
2024/04/11 10:40:41;;;;;;;12.55;8.10;;;;;;;;;;5410948;26;20335;-72
2024/04/11 10:43:13;;;;;;;14.15;8.02;;;;;;;;;;5403394;26;20238;-72
2024/04/11 10:45:38;;;;;;;11.45;6.82;;;;;;;;;;5399741;26;20219;-72
2024/04/11 10:48:08;;;;;;;10.20;7.40;;;;;;;;;;5408410;26;20298;-72
2024/04/11 10:50:34;;;;;;;11.48;6.18;;;;;;;;;;5411742;26;20227;-72
2024/04/11 10:53:02;;;;;;;9.32;5.80;;;;;;;;;;5408095;26;20281;-72
2024/04/11 10:55:30;;;;;;;13.63;6.93;;;;;;;;;;5411769;26;20273;-72
2024/04/11 10:58:14;;;;;;;10.05;6.00;;;;;;;;;;5410599;26;20774;-71
2024/04/11 11:06:14;;;;;;;8.90;6.00;;;;;;;;;;5418565;26;20324;-71
2024/04/11 11:08:42;;;;;;;8.43;6.00;;;;;;;;;;5417989;26;20279;-72
2024/04/11 11:11:11;;;;;;;13.82;6.50;;;;;;;;;;5412723;26;20269;-72
2024/04/11 11:13:38;;;;;;;9.60;6.40;;;;;;;;;;5409385;26;20250;-72
2024/04/11 11:16:05;;;;;;;7.68;5.63;;;;;;;;;;5411670;26;20275;-72
2024/04/11 11:18:33;;;;;;;8.45;6.20;;;;;;;;;;5410051;26;20726;-72
2024/04/11 11:21:00;;;;;;;9.77;5.35;;;;;;;;;;5410279;26;20223;-72
2024/04/11 11:23:26;;;;;;;7.20;5.15;;;;;;;;;;5403031;26;20313;-72
2024/04/11 11:25:53;;;;;;;10.20;6.18;;;;;;;;;;5398640;26;20227;-72
2024/04/11 11:28:21;;;;;;;9.25;5.38;;;;;;;;;;5406568;26;20244;-72
2024/04/11 11:30:48;;;;;;;9.15;5.65;;;;;;;;;;5411599;26;20231;-72
2024/04/11 11:33:17;;;;;;;6.82;5.28;;;;;;;;;;5407849;26;20776;-72
2024/04/11 11:35:42;;;;;;;13.93;5.53;;;;;;;;;;5415085;26;20223;-72
2024/04/11 11:38:08;;;;;;;11.30;5.47;;;;;;;;;;5415962;26;20247;-72
2024/04/11 11:40:38;;;;;;;7.85;5.32;;;;;;;;;;5420055;26;20234;-71
2024/04/11 11:43:06;;;;;;;8.02;4.72;;;;;;;;;;5411554;26;20285;-72
2024/04/11 11:45:44;;;;;;;9.27;5.60;;;;;;;;;;5409895;26;20694;-72
2024/04/11 11:48:12;;;;;;;9.32;5.57;;;;;;;;;;5413968;26;20575;-72
2024/04/11 11:50:38;;;;;;;11.68;6.20;;;;;;;;;;5402573;26;20275;-71
2024/04/11 11:55:55;;;;;;;9.52;6.30;;;;;;;;;;5398116;26;20281;-71
2024/04/11 11:58:23;;;;;;;8.80;6.13;;;;;;;;;;5391043;26;20266;-71
2024/04/11 12:00:59;;;;;;;7.80;5.90;;;;;;;;;;5404300;26;20777;-71
2024/04/11 12:03:24;;;;;;;11.05;7.30;;;;;;;;;;5382827;26;20286;-71
2024/04/11 12:05:50;;;;;;;10.77;7.43;;;;;;;;;;5391626;26;20231;-72
2024/04/11 12:08:16;;;;;;;14.10;7.88;;;;;;;;;;5392261;26;20770;-72
2024/04/11 12:13:34;;;;;;;8.23;6.20;;;;;;;;;;5393352;26;20227;-72
2024/04/11 12:15:59;;;;;;;12.23;6.22;;;;;;;;;;5400671;26;20230;-72
2024/04/11 12:18:25;;;;;;;7.05;5.07;;;;;;;;;;5409079;26;20630;-71
2024/04/11 12:20:51;;;;;;;9.45;5.25;;;;;;;;;;5394944;26;20235;-71
2024/04/11 12:23:17;;;;;;;9.43;5.32;;;;;;;;;;5392424;26;20680;-72
2024/04/11 12:25:44;;;;;;;6.80;4.38;;;;;;;;;;5399619;26;20429;-72
2024/04/11 12:28:10;;;;;;;10.50;5.45;;;;;;;;;;5393156;26;20228;-72
2024/04/11 12:30:36;;;;;;;8.23;5.10;;;;;;;;;;5401584;26;20666;-72
2024/04/11 12:33:05;;;;;;;8.85;6.03;;;;;;;;;;5400590;26;20345;-72
2024/04/11 12:35:41;;;;;;;7.55;4.72;;;;;;;;;;5396277;26;20680;-72
2024/04/11 12:38:07;;;;;;;9.85;5.07;;;;;;;;;;5391516;26;20597;-72
2024/04/11 12:40:39;;;;;;;8.23;4.18;;;;;;;;;;5398112;26;20238;-72
2024/04/11 12:43:05;;;;;;;9.95;6.13;;;;;;;;;;5409193;26;20231;-72
2024/04/11 12:45:31;;;;;;;7.05;4.55;;;;;;;;;;5401533;26;20295;-72
2024/04/11 12:48:04;;;;;;;5.70;3.92;;;;;;;;;;5404356;26;20601;-72
2024/04/11 12:50:30;;;;;;;8.27;4.32;;;;;;;;;;5389654;26;20236;-71
2024/04/11 12:52:56;;;;;;;6.82;3.80;;;;;;;;;;5397110;26;20235;-72
2024/04/11 12:55:24;;;;;;;11.27;4.70;;;;;;;;;;5393573;26;20343;-72
2024/04/11 12:57:51;;;;;;;9.75;5.00;;;;;;;;;;5390363;26;20232;-72
2024/04/11 13:00:35;;;;;;;7.68;3.85;;;;;;;;;;5395293;26;20247;-71
2024/04/11 13:03:06;;;;;;;8.18;4.25;;;;;;;;;;5399593;26;20629;-71
2024/04/11 13:05:45;;;;;;;9.88;4.72;;;;;;;;;;5400441;26;20328;-71
2024/04/11 13:08:14;;;;;;;8.38;4.20;;;;;;;;;;5404863;26;20318;-72
2024/04/11 13:10:41;;;;;;;8.23;3.95;;;;;;;;;;5382632;26;20356;-71
2024/04/11 13:13:06;;;;;;;6.82;4.55;;;;;;;;;;5395249;26;20246;-71
2024/04/11 13:15:43;;;;;;;8.38;4.15;;;;;;;;;;5403073;26;20265;-72
2024/04/11 13:18:11;;;;;;;7.57;3.95;;;;;;;;;;5408723;26;20343;-71
2024/04/11 13:20:37;;;;;;;7.15;4.03;;;;;;;;;;5401859;26;21000;-72
2024/04/11 13:23:21;;;;;;;8.63;3.95;;;;;;;;;;5412747;26;20222;-72
2024/04/11 13:25:47;;;;;;;5.13;3.55;;;;;;;;;;5394617;26;20423;-72
2024/04/11 13:28:13;;;;;;;10.82;3.83;;;;;;;;;;5393809;26;20313;-72
2024/04/11 13:30:46;;;;;;;6.30;4.18;;;;;;;;;;5395073;26;20232;-72
2024/04/11 13:33:14;;;;;;;5.45;3.50;;;;;;;;;;5400939;26;20262;-71
2024/04/11 13:35:49;;;;;;;4.88;3.58;;;;;;;;;;5404357;26;20231;-73
2024/04/11 13:38:19;;;;;;;4.20;3.05;;;;;;;;;;5400334;26;20280;-70
2024/04/11 13:41:14;;;;;;;6.60;3.08;;;;;;;;;;5403523;26;20343;-72
2024/04/11 13:43:42;;;;;;;5.35;3.35;;;;;;;;;;5404061;26;20273;-72
2024/04/11 13:46:08;;;;;;;6.32;3.42;;;;;;;;;;5398457;26;20563;-72
2024/04/11 13:48:37;;;;;;;7.63;2.88;;;;;;;;;;5394520;26;20348;-72
2024/04/11 13:51:09;;;;;;;4.95;2.75;;;;;;;;;;5404000;26;20231;-71
2024/04/11 13:53:36;;;;;;;6.50;2.72;;;;;;;;;;5397786;26;20235;-71
2024/04/11 13:56:04;;;;;;;6.38;3.00;;;;;;;;;;5400596;26;20298;-71
2024/04/11 13:58:30;;;;;;;5.97;3.92;;;;;;;;;;5402336;26;20243;-72
2024/04/11 14:01:04;;;;;;;8.27;3.63;;;;;;;;;;5405758;26;20846;-71
2024/04/11 14:03:45;;;;;;;6.40;3.38;;;;;;;;;;5398254;26;20242;-72
2024/04/11 14:08:42;;;;;;;4.63;3.17;;;;;;;;;;5392116;26;20224;-71
2024/04/11 14:11:10;;;;;;;6.85;3.58;;;;;;;;;;5393716;26;20279;-72
2024/04/11 14:13:41;;;;;;;4.18;3.17;;;;;;;;;;5393658;26;20243;-71
2024/04/11 14:16:08;;;;;;;4.80;2.95;;;;;;;;;;5392570;26;20303;-72
2024/04/11 14:18:34;;;;;;;7.53;3.15;;;;;;;;;;5394356;26;20315;-71
2024/04/11 14:23:53;;;;;;;15.18;5.32;;;;;;;;;;5387362;26;20274;-71
2024/04/11 14:26:35;;;;;;;6.90;4.22;;;;;;;;;;5410015;26;20344;-71
2024/04/11 14:29:02;;;;;;;5.47;3.15;;;;;;;;;;5387029;26;20282;-72
2024/04/11 14:31:30;;;;;;;5.38;3.13;;;;;;;;;;5403284;26;20235;-72
2024/04/11 14:36:26;;;;;;;6.60;3.85;;;;;;;;;;5398325;26;20227;-71
2024/04/11 14:38:55;;;;;;;6.05;3.83;;;;;;;;;;5408836;26;20231;-71
2024/04/11 14:41:20;;;;;;;6.20;3.75;;;;;;;;;;5396133;26;20268;-71
2024/04/11 14:43:48;;;;;;;4.72;3.25;;;;;;;;;;5408158;26;20235;-71
2024/04/11 14:46:14;;;;;;;5.57;3.47;;;;;;;;;;5405950;26;20757;-72
2024/04/11 14:48:40;;;;;;;5.60;3.28;;;;;;;;;;5396748;26;20243;-71
2024/04/11 14:51:08;;;;;;;5.13;3.17;;;;;;;;;;5402888;26;20269;-71
2024/04/11 14:53:33;;;;;;;4.97;3.00;;;;;;;;;;5399833;26;20365;-71
2024/04/11 14:56:14;;;;;;;6.60;3.10;;;;;;;;;;5406137;26;20254;-71
2024/04/11 14:58:42;;;;;;;7.53;4.60;;;;;;;;;;5403336;26;20239;-71
2024/04/11 15:01:30;;;;;;;10.35;5.45;;;;;;;;;;5415517;26;20231;-72
2024/04/11 15:03:59;;;;;;;7.28;4.55;;;;;;;;;;5407984;26;20266;-72